Maple Heights, Ohio
Current Conditions -  °F | °C
As of 4:00 PM on Friday 19 Dec 2014 (Local Time) from KBKL Reporting Station
Overcast Overcast  
Wind Chill: 27°   Ceiling: 3000
Heat Index: 32°   Visibility: 10mi
Dew Point: 20°   Wind: 5mph
Humidity: 61%   Direction: 270°W
Pressure: 30.26"   Gusts: NA
Location:  41.41°N, 81.56°W
Report Text: KBKL 192100Z AUTO 27004KT 10SM OVC030 00/M07 A3026 RMK AO2 T00001067 TSNO
Loading
Personal Weather Stations






























Interactive Weather Map New forecast layout! Learn more

10-Day Weather Forecast

Advertisements
Track Severe Weather on mobile